sensor_id;sensor_type;location;lat;lon;timestamp;P1;durP1;ratioP1;P2;durP2;ratioP2
10659;SDS011;5378;53.206;13.316;2023-07-02T00:00:29;2.77;;;2.27;;
10659;SDS011;5378;53.206;13.316;2023-07-02T00:03:16;2.33;;;2.13;;
10659;SDS011;5378;53.206;13.316;2023-07-02T00:06:07;2.90;;;2.40;;
10659;SDS011;5378;53.206;13.316;2023-07-02T00:08:54;3.80;;;2.63;;
10659;SDS011;5378;53.206;13.316;2023-07-02T00:11:41;7.97;;;2.27;;
10659;SDS011;5378;53.206;13.316;2023-07-02T00:14:31;2.67;;;2.13;;
10659;SDS011;5378;53.206;13.316;2023-07-02T00:17:19;2.40;;;2.10;;
10659;SDS011;5378;53.206;13.316;2023-07-02T00:20:06;2.90;;;2.60;;
10659;SDS011;5378;53.206;13.316;2023-07-02T00:23:01;3.07;;;2.27;;
10659;SDS011;5378;53.206;13.316;2023-07-02T00:25:48;4.43;;;3.00;;
10659;SDS011;5378;53.206;13.316;2023-07-02T00:28:35;7.10;;;2.50;;
10659;SDS011;5378;53.206;13.316;2023-07-02T00:31:23;2.57;;;2.30;;
10659;SDS011;5378;53.206;13.316;2023-07-02T00:34:10;2.53;;;2.33;;
10659;SDS011;5378;53.206;13.316;2023-07-02T00:36:59;4.67;;;2.33;;
10659;SDS011;5378;53.206;13.316;2023-07-02T00:39:46;4.40;;;2.70;;
10659;SDS011;5378;53.206;13.316;2023-07-02T00:42:33;3.97;;;2.87;;
10659;SDS011;5378;53.206;13.316;2023-07-02T00:45:20;3.13;;;2.40;;
10659;SDS011;5378;53.206;13.316;2023-07-02T00:48:09;4.00;;;2.63;;
10659;SDS011;5378;53.206;13.316;2023-07-02T00:50:56;2.43;;;2.10;;
10659;SDS011;5378;53.206;13.316;2023-07-02T00:53:44;3.00;;;2.40;;
10659;SDS011;5378;53.206;13.316;2023-07-02T00:56:31;2.63;;;2.37;;
10659;SDS011;5378;53.206;13.316;2023-07-02T00:59:18;2.87;;;2.50;;
10659;SDS011;5378;53.206;13.316;2023-07-02T01:02:05;3.27;;;2.80;;
10659;SDS011;5378;53.206;13.316;2023-07-02T01:04:54;2.83;;;2.53;;
10659;SDS011;5378;53.206;13.316;2023-07-02T01:07:43;3.37;;;2.40;;
10659;SDS011;5378;53.206;13.316;2023-07-02T01:10:30;5.70;;;3.80;;
10659;SDS011;5378;53.206;13.316;2023-07-02T01:13:19;4.37;;;2.77;;
10659;SDS011;5378;53.206;13.316;2023-07-02T01:16:08;3.90;;;3.07;;
10659;SDS011;5378;53.206;13.316;2023-07-02T01:18:55;3.93;;;3.03;;
10659;SDS011;5378;53.206;13.316;2023-07-02T01:21:43;3.97;;;2.87;;
10659;SDS011;5378;53.206;13.316;2023-07-02T01:24:32;4.17;;;2.80;;
10659;SDS011;5378;53.206;13.316;2023-07-02T01:27:19;4.40;;;2.70;;
10659;SDS011;5378;53.206;13.316;2023-07-02T01:30:07;5.23;;;3.33;;
10659;SDS011;5378;53.206;13.316;2023-07-02T01:32:56;4.93;;;3.60;;
10659;SDS011;5378;53.206;13.316;2023-07-02T01:35:43;4.53;;;3.40;;
10659;SDS011;5378;53.206;13.316;2023-07-02T01:38:32;4.17;;;3.53;;
10659;SDS011;5378;53.206;13.316;2023-07-02T01:41:19;9.87;;;3.80;;
10659;SDS011;5378;53.206;13.316;2023-07-02T01:44:06;5.90;;;4.23;;
10659;SDS011;5378;53.206;13.316;2023-07-02T01:46:53;10.70;;;3.87;;
10659;SDS011;5378;53.206;13.316;2023-07-02T01:49:42;6.80;;;3.23;;
10659;SDS011;5378;53.206;13.316;2023-07-02T01:52:29;6.87;;;4.00;;
10659;SDS011;5378;53.206;13.316;2023-07-02T01:55:21;5.90;;;3.97;;
10659;SDS011;5378;53.206;13.316;2023-07-02T01:58:09;11.33;;;4.20;;
10659;SDS011;5378;53.206;13.316;2023-07-02T02:00:56;10.53;;;5.07;;
10659;SDS011;5378;53.206;13.316;2023-07-02T02:03:44;6.67;;;3.83;;
10659;SDS011;5378;53.206;13.316;2023-07-02T02:06:31;7.33;;;4.00;;
10659;SDS011;5378;53.206;13.316;2023-07-02T02:09:18;6.50;;;3.40;;
10659;SDS011;5378;53.206;13.316;2023-07-02T02:12:07;5.50;;;4.10;;
10659;SDS011;5378;53.206;13.316;2023-07-02T02:14:54;8.33;;;4.30;;
10659;SDS011;5378;53.206;13.316;2023-07-02T02:17:41;7.30;;;4.43;;
10659;SDS011;5378;53.206;13.316;2023-07-02T02:20:28;7.27;;;4.10;;
10659;SDS011;5378;53.206;13.316;2023-07-02T02:23:15;6.60;;;4.73;;
10659;SDS011;5378;53.206;13.316;2023-07-02T02:26:02;7.77;;;4.20;;
10659;SDS011;5378;53.206;13.316;2023-07-02T02:28:50;4.40;;;3.80;;
10659;SDS011;5378;53.206;13.316;2023-07-02T02:31:38;10.50;;;5.43;;
10659;SDS011;5378;53.206;13.316;2023-07-02T02:34:25;5.20;;;4.43;;
10659;SDS011;5378;53.206;13.316;2023-07-02T02:37:14;4.93;;;3.90;;
10659;SDS011;5378;53.206;13.316;2023-07-02T02:40:02;5.87;;;3.93;;
10659;SDS011;5378;53.206;13.316;2023-07-02T02:42:51;5.63;;;4.10;;
10659;SDS011;5378;53.206;13.316;2023-07-02T02:45:39;7.30;;;3.60;;
10659;SDS011;5378;53.206;13.316;2023-07-02T02:48:27;15.30;;;4.23;;
10659;SDS011;5378;53.206;13.316;2023-07-02T02:51:14;11.90;;;3.80;;
10659;SDS011;5378;53.206;13.316;2023-07-02T02:54:01;8.53;;;4.37;;
10659;SDS011;5378;53.206;13.316;2023-07-02T02:56:48;6.70;;;4.80;;
10659;SDS011;5378;53.206;13.316;2023-07-02T02:59:35;13.00;;;5.73;;
10659;SDS011;5378;53.206;13.316;2023-07-02T03:02:24;11.60;;;5.90;;
10659;SDS011;5378;53.206;13.316;2023-07-02T03:05:11;6.10;;;4.73;;
10659;SDS011;5378;53.206;13.316;2023-07-02T03:08:01;9.40;;;6.20;;
10659;SDS011;5378;53.206;13.316;2023-07-02T03:10:49;7.37;;;5.83;;
10659;SDS011;5378;53.206;13.316;2023-07-02T03:13:36;16.20;;;5.83;;
10659;SDS011;5378;53.206;13.316;2023-07-02T03:16:23;10.20;;;7.30;;
10659;SDS011;5378;53.206;13.316;2023-07-02T03:19:12;13.17;;;7.67;;
10659;SDS011;5378;53.206;13.316;2023-07-02T03:22:00;15.87;;;7.97;;
10659;SDS011;5378;53.206;13.316;2023-07-02T03:24:47;13.33;;;6.47;;
10659;SDS011;5378;53.206;13.316;2023-07-02T03:27:34;6.67;;;5.67;;
10659;SDS011;5378;53.206;13.316;2023-07-02T03:30:21;7.90;;;4.80;;
10659;SDS011;5378;53.206;13.316;2023-07-02T03:33:08;6.53;;;5.30;;
10659;SDS011;5378;53.206;13.316;2023-07-02T03:35:57;5.20;;;4.10;;
10659;SDS011;5378;53.206;13.316;2023-07-02T03:38:45;8.20;;;4.70;;
10659;SDS011;5378;53.206;13.316;2023-07-02T03:41:32;10.20;;;4.70;;
10659;SDS011;5378;53.206;13.316;2023-07-02T03:44:19;5.80;;;4.57;;
10659;SDS011;5378;53.206;13.316;2023-07-02T03:47:06;7.37;;;5.50;;
10659;SDS011;5378;53.206;13.316;2023-07-02T03:49:54;5.90;;;4.67;;
10659;SDS011;5378;53.206;13.316;2023-07-02T03:52:42;7.63;;;5.33;;
10659;SDS011;5378;53.206;13.316;2023-07-02T03:55:29;9.43;;;6.70;;
10659;SDS011;5378;53.206;13.316;2023-07-02T03:58:17;21.47;;;4.67;;
10659;SDS011;5378;53.206;13.316;2023-07-02T04:01:04;7.20;;;4.30;;
10659;SDS011;5378;53.206;13.316;2023-07-02T04:03:52;3.60;;;3.23;;
10659;SDS011;5378;53.206;13.316;2023-07-02T04:06:40;5.90;;;2.67;;
10659;SDS011;5378;53.206;13.316;2023-07-02T04:09:28;2.33;;;2.13;;
10659;SDS011;5378;53.206;13.316;2023-07-02T04:12:18;4.53;;;2.33;;
10659;SDS011;5378;53.206;13.316;2023-07-02T04:15:06;3.30;;;2.20;;
10659;SDS011;5378;53.206;13.316;2023-07-02T04:17:54;2.40;;;2.20;;
10659;SDS011;5378;53.206;13.316;2023-07-02T04:20:41;5.00;;;2.43;;
10659;SDS011;5378;53.206;13.316;2023-07-02T04:23:28;3.63;;;2.30;;
10659;SDS011;5378;53.206;13.316;2023-07-02T04:26:17;2.43;;;2.23;;
10659;SDS011;5378;53.206;13.316;2023-07-02T04:29:04;22.13;;;2.87;;
10659;SDS011;5378;53.206;13.316;2023-07-02T04:31:51;6.40;;;2.50;;
10659;SDS011;5378;53.206;13.316;2023-07-02T04:34:39;2.63;;;2.20;;
10659;SDS011;5378;53.206;13.316;2023-07-02T04:37:26;3.90;;;2.17;;
10659;SDS011;5378;53.206;13.316;2023-07-02T04:40:14;7.20;;;2.53;;
10659;SDS011;5378;53.206;13.316;2023-07-02T04:43:02;2.67;;;2.33;;
10659;SDS011;5378;53.206;13.316;2023-07-02T04:45:50;6.73;;;2.80;;
10659;SDS011;5378;53.206;13.316;2023-07-02T04:48:37;3.20;;;2.60;;
10659;SDS011;5378;53.206;13.316;2023-07-02T04:51:24;7.17;;;3.27;;
10659;SDS011;5378;53.206;13.316;2023-07-02T04:54:12;5.93;;;2.77;;
10659;SDS011;5378;53.206;13.316;2023-07-02T04:56:58;3.90;;;3.00;;
10659;SDS011;5378;53.206;13.316;2023-07-02T04:59:47;3.30;;;2.73;;
10659;SDS011;5378;53.206;13.316;2023-07-02T05:02:34;4.50;;;2.90;;
10659;SDS011;5378;53.206;13.316;2023-07-02T05:05:21;3.10;;;2.53;;
10659;SDS011;5378;53.206;13.316;2023-07-02T05:08:07;3.47;;;2.60;;
10659;SDS011;5378;53.206;13.316;2023-07-02T05:10:55;5.33;;;2.47;;
10659;SDS011;5378;53.206;13.316;2023-07-02T05:13:42;4.27;;;2.10;;
10659;SDS011;5378;53.206;13.316;2023-07-02T05:16:30;3.13;;;2.37;;
10659;SDS011;5378;53.206;13.316;2023-07-02T05:19:17;5.10;;;2.23;;
10659;SDS011;5378;53.206;13.316;2023-07-02T05:22:04;5.40;;;2.00;;
10659;SDS011;5378;53.206;13.316;2023-07-02T05:24:51;2.43;;;2.23;;
10659;SDS011;5378;53.206;13.316;2023-07-02T05:27:38;1.90;;;1.67;;
10659;SDS011;5378;53.206;13.316;2023-07-02T05:30:26;3.80;;;2.23;;
10659;SDS011;5378;53.206;13.316;2023-07-02T05:33:14;3.93;;;2.00;;
10659;SDS011;5378;53.206;13.316;2023-07-02T05:36:01;2.73;;;2.13;;
10659;SDS011;5378;53.206;13.316;2023-07-02T05:38:49;3.50;;;2.10;;
10659;SDS011;5378;53.206;13.316;2023-07-02T05:41:36;3.40;;;2.77;;
10659;SDS011;5378;53.206;13.316;2023-07-02T05:44:23;4.70;;;3.13;;
10659;SDS011;5378;53.206;13.316;2023-07-02T05:47:10;7.13;;;2.90;;
10659;SDS011;5378;53.206;13.316;2023-07-02T05:49:58;5.50;;;2.57;;
10659;SDS011;5378;53.206;13.316;2023-07-02T05:52:46;5.03;;;2.63;;
10659;SDS011;5378;53.206;13.316;2023-07-02T05:55:33;6.57;;;2.90;;
10659;SDS011;5378;53.206;13.316;2023-07-02T05:58:20;7.30;;;2.80;;
10659;SDS011;5378;53.206;13.316;2023-07-02T06:01:11;5.00;;;3.07;;
10659;SDS011;5378;53.206;13.316;2023-07-02T06:03:59;3.90;;;2.30;;
10659;SDS011;5378;53.206;13.316;2023-07-02T06:06:47;2.50;;;1.70;;
10659;SDS011;5378;53.206;13.316;2023-07-02T06:09:34;4.30;;;2.00;;
10659;SDS011;5378;53.206;13.316;2023-07-02T06:12:21;3.50;;;2.43;;
10659;SDS011;5378;53.206;13.316;2023-07-02T06:15:09;2.70;;;1.80;;
10659;SDS011;5378;53.206;13.316;2023-07-02T06:17:57;5.47;;;3.07;;
10659;SDS011;5378;53.206;13.316;2023-07-02T06:20:45;2.67;;;1.50;;
10659;SDS011;5378;53.206;13.316;2023-07-02T06:23:40;2.83;;;1.67;;
10659;SDS011;5378;53.206;13.316;2023-07-02T06:26:28;5.40;;;1.83;;
10659;SDS011;5378;53.206;13.316;2023-07-02T06:29:15;5.03;;;1.83;;
10659;SDS011;5378;53.206;13.316;2023-07-02T06:32:02;4.90;;;2.30;;
10659;SDS011;5378;53.206;13.316;2023-07-02T06:34:49;4.40;;;1.93;;
10659;SDS011;5378;53.206;13.316;2023-07-02T06:37:36;3.83;;;2.20;;
10659;SDS011;5378;53.206;13.316;2023-07-02T06:40:25;3.50;;;2.40;;
10659;SDS011;5378;53.206;13.316;2023-07-02T06:43:12;2.53;;;2.00;;
10659;SDS011;5378;53.206;13.316;2023-07-02T06:45:59;5.60;;;2.70;;
10659;SDS011;5378;53.206;13.316;2023-07-02T06:48:46;5.47;;;2.50;;
10659;SDS011;5378;53.206;13.316;2023-07-02T06:51:33;3.00;;;2.57;;
10659;SDS011;5378;53.206;13.316;2023-07-02T06:54:20;4.03;;;2.83;;
10659;SDS011;5378;53.206;13.316;2023-07-02T06:57:09;3.67;;;2.33;;
10659;SDS011;5378;53.206;13.316;2023-07-02T06:59:57;6.03;;;2.73;;
10659;SDS011;5378;53.206;13.316;2023-07-02T07:02:45;7.90;;;2.80;;
10659;SDS011;5378;53.206;13.316;2023-07-02T07:05:32;4.93;;;2.30;;
10659;SDS011;5378;53.206;13.316;2023-07-02T07:08:19;4.87;;;2.83;;
10659;SDS011;5378;53.206;13.316;2023-07-02T07:11:06;4.20;;;2.10;;
10659;SDS011;5378;53.206;13.316;2023-07-02T07:13:55;5.33;;;2.57;;
10659;SDS011;5378;53.206;13.316;2023-07-02T07:16:42;5.97;;;2.33;;
10659;SDS011;5378;53.206;13.316;2023-07-02T07:19:29;4.50;;;2.93;;
10659;SDS011;5378;53.206;13.316;2023-07-02T07:22:16;5.33;;;2.50;;
10659;SDS011;5378;53.206;13.316;2023-07-02T07:25:03;6.67;;;3.20;;
10659;SDS011;5378;53.206;13.316;2023-07-02T07:27:51;5.67;;;2.60;;
10659;SDS011;5378;53.206;13.316;2023-07-02T07:30:39;6.47;;;2.63;;
10659;SDS011;5378;53.206;13.316;2023-07-02T07:33:26;6.50;;;2.60;;
10659;SDS011;5378;53.206;13.316;2023-07-02T07:36:13;5.70;;;3.20;;
10659;SDS011;5378;53.206;13.316;2023-07-02T07:39:01;5.73;;;3.00;;
10659;SDS011;5378;53.206;13.316;2023-07-02T07:41:48;15.70;;;3.27;;
10659;SDS011;5378;53.206;13.316;2023-07-02T07:44:34;6.43;;;4.30;;
10659;SDS011;5378;53.206;13.316;2023-07-02T07:47:23;8.00;;;3.57;;
10659;SDS011;5378;53.206;13.316;2023-07-02T07:50:10;4.43;;;2.67;;
10659;SDS011;5378;53.206;13.316;2023-07-02T07:52:56;5.40;;;3.10;;
10659;SDS011;5378;53.206;13.316;2023-07-02T07:55:44;8.70;;;3.50;;
10659;SDS011;5378;53.206;13.316;2023-07-02T07:58:31;8.17;;;3.20;;
10659;SDS011;5378;53.206;13.316;2023-07-02T08:01:18;5.70;;;3.23;;
10659;SDS011;5378;53.206;13.316;2023-07-02T08:04:07;8.20;;;4.00;;
10659;SDS011;5378;53.206;13.316;2023-07-02T08:06:54;9.70;;;4.20;;
10659;SDS011;5378;53.206;13.316;2023-07-02T08:09:42;6.30;;;2.90;;
10659;SDS011;5378;53.206;13.316;2023-07-02T08:12:29;7.40;;;3.50;;
10659;SDS011;5378;53.206;13.316;2023-07-02T08:15:16;7.00;;;3.37;;
10659;SDS011;5378;53.206;13.316;2023-07-02T08:18:03;7.60;;;3.67;;
10659;SDS011;5378;53.206;13.316;2023-07-02T08:20:54;9.20;;;3.20;;
10659;SDS011;5378;53.206;13.316;2023-07-02T08:23:42;5.77;;;2.73;;
10659;SDS011;5378;53.206;13.316;2023-07-02T08:26:29;11.43;;;4.03;;
10659;SDS011;5378;53.206;13.316;2023-07-02T08:29:16;15.47;;;3.90;;
10659;SDS011;5378;53.206;13.316;2023-07-02T08:32:03;12.37;;;3.93;;
10659;SDS011;5378;53.206;13.316;2023-07-02T08:34:50;11.57;;;3.80;;
10659;SDS011;5378;53.206;13.316;2023-07-02T08:37:39;7.33;;;3.40;;
10659;SDS011;5378;53.206;13.316;2023-07-02T08:40:27;5.43;;;2.97;;
10659;SDS011;5378;53.206;13.316;2023-07-02T08:43:15;4.80;;;3.00;;
10659;SDS011;5378;53.206;13.316;2023-07-02T08:46:02;4.87;;;3.70;;
10659;SDS011;5378;53.206;13.316;2023-07-02T08:48:49;14.27;;;3.20;;
10659;SDS011;5378;53.206;13.316;2023-07-02T08:51:36;7.17;;;3.10;;
10659;SDS011;5378;53.206;13.316;2023-07-02T08:54:24;6.73;;;3.30;;
10659;SDS011;5378;53.206;13.316;2023-07-02T08:57:11;4.60;;;3.20;;
10659;SDS011;5378;53.206;13.316;2023-07-02T08:59:59;7.77;;;4.30;;
10659;SDS011;5378;53.206;13.316;2023-07-02T09:02:46;4.70;;;2.77;;
10659;SDS011;5378;53.206;13.316;2023-07-02T09:05:33;11.37;;;4.00;;
10659;SDS011;5378;53.206;13.316;2023-07-02T09:08:23;8.37;;;3.40;;
10659;SDS011;5378;53.206;13.316;2023-07-02T09:11:13;8.87;;;3.70;;
10659;SDS011;5378;53.206;13.316;2023-07-02T09:14:02;7.50;;;4.07;;
10659;SDS011;5378;53.206;13.316;2023-07-02T09:16:49;7.40;;;3.30;;
10659;SDS011;5378;53.206;13.316;2023-07-02T09:19:50;9.37;;;4.40;;
10659;SDS011;5378;53.206;13.316;2023-07-02T09:22:37;8.27;;;3.93;;
10659;SDS011;5378;53.206;13.316;2023-07-02T09:25:33;8.50;;;3.83;;
10659;SDS011;5378;53.206;13.316;2023-07-02T09:28:22;12.53;;;3.93;;
10659;SDS011;5378;53.206;13.316;2023-07-02T09:31:09;11.67;;;4.50;;
10659;SDS011;5378;53.206;13.316;2023-07-02T09:34:01;10.20;;;4.27;;
10659;SDS011;5378;53.206;13.316;2023-07-02T09:36:48;8.03;;;3.90;;
10659;SDS011;5378;53.206;13.316;2023-07-02T09:39:36;8.13;;;3.90;;
10659;SDS011;5378;53.206;13.316;2023-07-02T09:42:25;9.13;;;4.40;;
10659;SDS011;5378;53.206;13.316;2023-07-02T09:45:13;11.03;;;4.13;;
10659;SDS011;5378;53.206;13.316;2023-07-02T09:48:01;6.77;;;3.33;;
10659;SDS011;5378;53.206;13.316;2023-07-02T09:50:50;8.93;;;3.70;;
10659;SDS011;5378;53.206;13.316;2023-07-02T09:53:37;9.17;;;4.27;;
10659;SDS011;5378;53.206;13.316;2023-07-02T09:56:24;6.57;;;3.70;;
10659;SDS011;5378;53.206;13.316;2023-07-02T09:59:11;11.63;;;5.20;;
10659;SDS011;5378;53.206;13.316;2023-07-02T10:01:59;6.40;;;3.40;;
10659;SDS011;5378;53.206;13.316;2023-07-02T10:04:47;7.53;;;3.10;;
10659;SDS011;5378;53.206;13.316;2023-07-02T10:07:40;8.87;;;3.83;;
10659;SDS011;5378;53.206;13.316;2023-07-02T10:10:28;7.93;;;4.27;;
10659;SDS011;5378;53.206;13.316;2023-07-02T10:13:26;14.70;;;4.20;;
10659;SDS011;5378;53.206;13.316;2023-07-02T10:16:13;11.60;;;4.10;;
10659;SDS011;5378;53.206;13.316;2023-07-02T10:19:11;7.00;;;3.83;;
10659;SDS011;5378;53.206;13.316;2023-07-02T10:22:02;8.17;;;2.87;;
10659;SDS011;5378;53.206;13.316;2023-07-02T10:24:53;16.80;;;4.40;;
10659;SDS011;5378;53.206;13.316;2023-07-02T10:27:42;11.57;;;3.80;;
10659;SDS011;5378;53.206;13.316;2023-07-02T10:30:30;13.97;;;5.10;;
10659;SDS011;5378;53.206;13.316;2023-07-02T10:33:18;13.23;;;4.73;;
10659;SDS011;5378;53.206;13.316;2023-07-02T10:36:07;9.43;;;3.97;;
10659;SDS011;5378;53.206;13.316;2023-07-02T10:39:04;8.53;;;4.10;;
10659;SDS011;5378;53.206;13.316;2023-07-02T10:41:51;5.93;;;3.47;;
10659;SDS011;5378;53.206;13.316;2023-07-02T10:44:46;14.23;;;4.77;;
10659;SDS011;5378;53.206;13.316;2023-07-02T10:47:34;10.07;;;4.90;;
10659;SDS011;5378;53.206;13.316;2023-07-02T10:50:26;10.63;;;4.10;;
10659;SDS011;5378;53.206;13.316;2023-07-02T10:53:18;7.30;;;3.83;;
10659;SDS011;5378;53.206;13.316;2023-07-02T10:56:06;10.90;;;3.50;;
10659;SDS011;5378;53.206;13.316;2023-07-02T10:58:53;9.23;;;3.47;;
10659;SDS011;5378;53.206;13.316;2023-07-02T11:01:40;6.87;;;3.43;;
10659;SDS011;5378;53.206;13.316;2023-07-02T11:04:28;18.17;;;5.07;;
10659;SDS011;5378;53.206;13.316;2023-07-02T11:07:21;11.07;;;4.07;;
10659;SDS011;5378;53.206;13.316;2023-07-02T11:10:16;9.57;;;3.63;;
10659;SDS011;5378;53.206;13.316;2023-07-02T11:13:11;15.57;;;4.97;;
10659;SDS011;5378;53.206;13.316;2023-07-02T11:15:58;16.83;;;4.30;;
10659;SDS011;5378;53.206;13.316;2023-07-02T11:18:45;8.37;;;3.90;;
10659;SDS011;5378;53.206;13.316;2023-07-02T11:21:33;8.47;;;3.90;;
10659;SDS011;5378;53.206;13.316;2023-07-02T11:24:27;16.37;;;4.10;;
10659;SDS011;5378;53.206;13.316;2023-07-02T11:27:21;6.47;;;3.93;;
10659;SDS011;5378;53.206;13.316;2023-07-02T11:30:09;9.17;;;4.40;;
10659;SDS011;5378;53.206;13.316;2023-07-02T11:32:57;14.17;;;5.17;;
10659;SDS011;5378;53.206;13.316;2023-07-02T11:35:44;11.73;;;4.77;;
10659;SDS011;5378;53.206;13.316;2023-07-02T11:38:32;12.27;;;5.10;;
10659;SDS011;5378;53.206;13.316;2023-07-02T11:41:19;11.03;;;4.20;;
10659;SDS011;5378;53.206;13.316;2023-07-02T11:44:08;12.60;;;5.00;;
10659;SDS011;5378;53.206;13.316;2023-07-02T11:46:55;8.87;;;4.23;;
10659;SDS011;5378;53.206;13.316;2023-07-02T11:49:42;14.20;;;4.30;;
10659;SDS011;5378;53.206;13.316;2023-07-02T11:52:29;18.30;;;5.57;;
10659;SDS011;5378;53.206;13.316;2023-07-02T11:55:17;8.03;;;4.20;;
10659;SDS011;5378;53.206;13.316;2023-07-02T11:58:04;9.13;;;4.67;;
10659;SDS011;5378;53.206;13.316;2023-07-02T12:00:53;9.37;;;4.90;;
10659;SDS011;5378;53.206;13.316;2023-07-02T12:03:40;10.53;;;4.80;;
10659;SDS011;5378;53.206;13.316;2023-07-02T12:06:27;11.00;;;3.90;;
10659;SDS011;5378;53.206;13.316;2023-07-02T12:09:14;15.80;;;4.97;;
10659;SDS011;5378;53.206;13.316;2023-07-02T12:12:01;8.50;;;4.23;;
10659;SDS011;5378;53.206;13.316;2023-07-02T12:14:50;10.00;;;4.60;;
10659;SDS011;5378;53.206;13.316;2023-07-02T12:17:38;10.50;;;5.60;;
10659;SDS011;5378;53.206;13.316;2023-07-02T12:20:25;14.10;;;4.53;;
10659;SDS011;5378;53.206;13.316;2023-07-02T12:23:12;8.27;;;4.20;;
10659;SDS011;5378;53.206;13.316;2023-07-02T12:26:00;9.23;;;4.03;;
10659;SDS011;5378;53.206;13.316;2023-07-02T12:28:46;8.57;;;4.07;;
10659;SDS011;5378;53.206;13.316;2023-07-02T12:31:33;6.27;;;3.70;;
10659;SDS011;5378;53.206;13.316;2023-07-02T12:34:22;12.83;;;3.90;;
10659;SDS011;5378;53.206;13.316;2023-07-02T12:37:09;11.90;;;4.23;;
10659;SDS011;5378;53.206;13.316;2023-07-02T12:39:56;14.73;;;4.80;;
10659;SDS011;5378;53.206;13.316;2023-07-02T12:42:43;15.33;;;4.00;;
10659;SDS011;5378;53.206;13.316;2023-07-02T12:45:31;9.27;;;4.60;;
10659;SDS011;5378;53.206;13.316;2023-07-02T12:48:18;6.10;;;3.20;;
10659;SDS011;5378;53.206;13.316;2023-07-02T12:51:07;12.20;;;4.67;;
10659;SDS011;5378;53.206;13.316;2023-07-02T12:53:54;6.40;;;4.03;;
10659;SDS011;5378;53.206;13.316;2023-07-02T12:56:41;13.43;;;4.70;;
10659;SDS011;5378;53.206;13.316;2023-07-02T12:59:28;12.00;;;4.60;;
10659;SDS011;5378;53.206;13.316;2023-07-02T13:02:15;12.10;;;4.40;;
10659;SDS011;5378;53.206;13.316;2023-07-02T13:05:02;10.63;;;5.20;;
10659;SDS011;5378;53.206;13.316;2023-07-02T13:07:52;9.20;;;4.47;;
10659;SDS011;5378;53.206;13.316;2023-07-02T13:10:39;9.90;;;4.00;;
10659;SDS011;5378;53.206;13.316;2023-07-02T13:13:27;11.33;;;3.70;;
10659;SDS011;5378;53.206;13.316;2023-07-02T13:16:14;12.53;;;4.50;;
10659;SDS011;5378;53.206;13.316;2023-07-02T13:19:01;6.67;;;3.60;;
10659;SDS011;5378;53.206;13.316;2023-07-02T13:21:48;9.60;;;4.23;;
10659;SDS011;5378;53.206;13.316;2023-07-02T13:24:37;7.93;;;3.17;;
10659;SDS011;5378;53.206;13.316;2023-07-02T13:27:25;7.77;;;3.87;;
10659;SDS011;5378;53.206;13.316;2023-07-02T13:30:12;9.03;;;3.63;;
10659;SDS011;5378;53.206;13.316;2023-07-02T13:32:59;10.53;;;4.03;;
10659;SDS011;5378;53.206;13.316;2023-07-02T13:35:46;9.20;;;4.13;;
10659;SDS011;5378;53.206;13.316;2023-07-02T13:38:35;12.93;;;4.60;;
10659;SDS011;5378;53.206;13.316;2023-07-02T13:41:23;10.43;;;4.10;;
10659;SDS011;5378;53.206;13.316;2023-07-02T13:44:10;8.43;;;3.40;;
10659;SDS011;5378;53.206;13.316;2023-07-02T13:46:57;10.30;;;3.93;;
10659;SDS011;5378;53.206;13.316;2023-07-02T13:49:44;10.27;;;3.60;;
10659;SDS011;5378;53.206;13.316;2023-07-02T13:52:31;7.03;;;3.97;;
10659;SDS011;5378;53.206;13.316;2023-07-02T13:55:18;9.87;;;3.40;;
10659;SDS011;5378;53.206;13.316;2023-07-02T13:58:07;9.00;;;3.63;;
10659;SDS011;5378;53.206;13.316;2023-07-02T14:00:56;10.03;;;4.10;;
10659;SDS011;5378;53.206;13.316;2023-07-02T14:03:43;8.93;;;3.87;;
10659;SDS011;5378;53.206;13.316;2023-07-02T14:06:30;11.30;;;4.27;;
10659;SDS011;5378;53.206;13.316;2023-07-02T14:09:17;7.60;;;3.10;;
10659;SDS011;5378;53.206;13.316;2023-07-02T14:12:05;11.57;;;3.37;;
10659;SDS011;5378;53.206;13.316;2023-07-02T14:14:52;11.20;;;3.83;;
10659;SDS011;5378;53.206;13.316;2023-07-02T14:17:41;10.90;;;4.17;;
10659;SDS011;5378;53.206;13.316;2023-07-02T14:20:27;12.40;;;3.60;;
10659;SDS011;5378;53.206;13.316;2023-07-02T14:23:14;6.20;;;3.10;;
10659;SDS011;5378;53.206;13.316;2023-07-02T14:26:01;9.50;;;3.37;;
10659;SDS011;5378;53.206;13.316;2023-07-02T14:28:48;7.53;;;3.40;;
10659;SDS011;5378;53.206;13.316;2023-07-02T14:31:35;10.93;;;3.47;;
10659;SDS011;5378;53.206;13.316;2023-07-02T14:34:24;8.40;;;3.53;;
10659;SDS011;5378;53.206;13.316;2023-07-02T14:37:11;14.87;;;3.70;;
10659;SDS011;5378;53.206;13.316;2023-07-02T14:39:58;9.57;;;4.33;;
10659;SDS011;5378;53.206;13.316;2023-07-02T14:42:50;8.30;;;3.17;;
10659;SDS011;5378;53.206;13.316;2023-07-02T14:45:41;7.90;;;3.33;;
10659;SDS011;5378;53.206;13.316;2023-07-02T14:48:30;9.00;;;4.03;;
10659;SDS011;5378;53.206;13.316;2023-07-02T14:51:18;8.53;;;3.13;;
10659;SDS011;5378;53.206;13.316;2023-07-02T14:54:05;6.53;;;3.43;;
10659;SDS011;5378;53.206;13.316;2023-07-02T14:56:52;8.17;;;3.10;;
10659;SDS011;5378;53.206;13.316;2023-07-02T14:59:39;14.30;;;3.90;;
10659;SDS011;5378;53.206;13.316;2023-07-02T15:02:26;7.40;;;3.80;;
10659;SDS011;5378;53.206;13.316;2023-07-02T15:05:14;7.40;;;3.37;;
10659;SDS011;5378;53.206;13.316;2023-07-02T15:08:03;8.33;;;3.60;;
10659;SDS011;5378;53.206;13.316;2023-07-02T15:10:51;11.10;;;3.20;;
10659;SDS011;5378;53.206;13.316;2023-07-02T15:13:39;8.97;;;3.00;;
10659;SDS011;5378;53.206;13.316;2023-07-02T15:16:27;5.37;;;3.30;;
10659;SDS011;5378;53.206;13.316;2023-07-02T15:19:14;7.87;;;3.43;;
10659;SDS011;5378;53.206;13.316;2023-07-02T15:22:01;8.00;;;3.33;;
10659;SDS011;5378;53.206;13.316;2023-07-02T15:24:50;7.87;;;3.67;;
10659;SDS011;5378;53.206;13.316;2023-07-02T15:27:37;6.47;;;3.30;;
10659;SDS011;5378;53.206;13.316;2023-07-02T15:30:24;10.87;;;3.77;;
10659;SDS011;5378;53.206;13.316;2023-07-02T15:33:12;8.07;;;3.33;;
10659;SDS011;5378;53.206;13.316;2023-07-02T15:35:59;13.70;;;3.07;;
10659;SDS011;5378;53.206;13.316;2023-07-02T15:38:47;10.83;;;3.47;;
10659;SDS011;5378;53.206;13.316;2023-07-02T15:41:36;8.07;;;3.80;;
10659;SDS011;5378;53.206;13.316;2023-07-02T15:44:24;6.87;;;3.07;;
10659;SDS011;5378;53.206;13.316;2023-07-02T15:47:11;8.13;;;3.40;;
10659;SDS011;5378;53.206;13.316;2023-07-02T15:49:58;16.13;;;3.37;;
10659;SDS011;5378;53.206;13.316;2023-07-02T15:52:46;13.00;;;3.67;;
10659;SDS011;5378;53.206;13.316;2023-07-02T15:55:33;7.70;;;3.47;;
10659;SDS011;5378;53.206;13.316;2023-07-02T15:58:22;10.17;;;3.43;;
10659;SDS011;5378;53.206;13.316;2023-07-02T16:01:10;7.03;;;3.43;;
10659;SDS011;5378;53.206;13.316;2023-07-02T16:03:59;8.40;;;3.40;;
10659;SDS011;5378;53.206;13.316;2023-07-02T16:06:46;8.30;;;3.40;;
10659;SDS011;5378;53.206;13.316;2023-07-02T16:09:33;6.03;;;2.40;;
10659;SDS011;5378;53.206;13.316;2023-07-02T16:12:20;8.10;;;2.60;;
10659;SDS011;5378;53.206;13.316;2023-07-02T16:15:09;6.27;;;3.33;;
10659;SDS011;5378;53.206;13.316;2023-07-02T16:17:56;6.30;;;3.03;;
10659;SDS011;5378;53.206;13.316;2023-07-02T16:20:43;6.40;;;2.70;;
10659;SDS011;5378;53.206;13.316;2023-07-02T16:23:39;4.50;;;2.70;;
10659;SDS011;5378;53.206;13.316;2023-07-02T16:26:26;6.47;;;3.10;;
10659;SDS011;5378;53.206;13.316;2023-07-02T16:29:13;10.60;;;3.30;;
10659;SDS011;5378;53.206;13.316;2023-07-02T16:32:03;11.30;;;3.10;;
10659;SDS011;5378;53.206;13.316;2023-07-02T16:34:51;7.23;;;3.67;;
10659;SDS011;5378;53.206;13.316;2023-07-02T16:37:38;8.20;;;2.73;;
10659;SDS011;5378;53.206;13.316;2023-07-02T16:40:26;4.40;;;2.67;;
10659;SDS011;5378;53.206;13.316;2023-07-02T16:43:13;8.17;;;3.30;;
10659;SDS011;5378;53.206;13.316;2023-07-02T16:46:00;6.93;;;3.03;;
10659;SDS011;5378;53.206;13.316;2023-07-02T16:48:48;5.20;;;3.17;;